sensor_id;sensor_type;location;lat;lon;timestamp;temperature;humidity
40255;DHT22;25973;52.368;4.940;2022-10-10T00:00:42;11.70;99.90
40255;DHT22;25973;52.368;4.940;2022-10-10T00:03:08;11.70;99.90
40255;DHT22;25973;52.368;4.940;2022-10-10T00:05:36;11.60;99.90
40255;DHT22;25973;52.368;4.940;2022-10-10T00:08:03;11.60;99.90
40255;DHT22;25973;52.368;4.940;2022-10-10T00:10:28;11.60;99.90
40255;DHT22;25973;52.368;4.940;2022-10-10T00:12:54;11.60;99.90
40255;DHT22;25973;52.368;4.940;2022-10-10T00:15:20;11.60;99.90
40255;DHT22;25973;52.368;4.940;2022-10-10T00:17:45;11.60;99.90
40255;DHT22;25973;52.368;4.940;2022-10-10T00:20:12;11.60;99.90
40255;DHT22;25973;52.368;4.940;2022-10-10T00:22:38;11.60;99.90
40255;DHT22;25973;52.368;4.940;2022-10-10T00:25:05;11.60;99.90
40255;DHT22;25973;52.368;4.940;2022-10-10T00:27:32;11.60;99.90
40255;DHT22;25973;52.368;4.940;2022-10-10T00:29:58;11.60;99.90
40255;DHT22;25973;52.368;4.940;2022-10-10T00:32:24;11.60;99.90
40255;DHT22;25973;52.368;4.940;2022-10-10T00:34:50;11.60;99.90
40255;DHT22;25973;52.368;4.940;2022-10-10T00:37:15;11.60;99.90
40255;DHT22;25973;52.368;4.940;2022-10-10T00:39:41;11.60;99.90
40255;DHT22;25973;52.368;4.940;2022-10-10T00:42:12;11.50;99.90
40255;DHT22;25973;52.368;4.940;2022-10-10T00:44:43;11.60;99.90
40255;DHT22;25973;52.368;4.940;2022-10-10T00:47:09;11.50;99.90
40255;DHT22;25973;52.368;4.940;2022-10-10T00:49:37;11.60;99.90
40255;DHT22;25973;52.368;4.940;2022-10-10T00:52:04;11.60;99.90
40255;DHT22;25973;52.368;4.940;2022-10-10T00:54:31;11.50;99.90
40255;DHT22;25973;52.368;4.940;2022-10-10T00:57:12;11.50;99.90
40255;DHT22;25973;52.368;4.940;2022-10-10T00:59:40;11.60;99.90
40255;DHT22;25973;52.368;4.940;2022-10-10T01:02:06;11.50;99.90
40255;DHT22;25973;52.368;4.940;2022-10-10T01:04:43;11.50;99.90
40255;DHT22;25973;52.368;4.940;2022-10-10T01:07:19;11.50;99.90
40255;DHT22;25973;52.368;4.940;2022-10-10T01:09:46;11.50;99.90
40255;DHT22;25973;52.368;4.940;2022-10-10T01:12:32;11.50;99.90
40255;DHT22;25973;52.368;4.940;2022-10-10T01:17:36;11.60;99.90
40255;DHT22;25973;52.368;4.940;2022-10-10T01:31:15;11.60;99.90
40255;DHT22;25973;52.368;4.940;2022-10-10T01:33:53;11.60;99.90
40255;DHT22;25973;52.368;4.940;2022-10-10T01:36:31;11.60;99.90
40255;DHT22;25973;52.368;4.940;2022-10-10T01:39:08;11.60;99.90
40255;DHT22;25973;52.368;4.940;2022-10-10T01:41:46;11.60;99.90
40255;DHT22;25973;52.368;4.940;2022-10-10T01:44:14;11.60;99.90
40255;DHT22;25973;52.368;4.940;2022-10-10T01:46:40;11.60;99.90
40255;DHT22;25973;52.368;4.940;2022-10-10T01:49:05;11.60;99.90
40255;DHT22;25973;52.368;4.940;2022-10-10T01:51:48;11.60;99.90
40255;DHT22;25973;52.368;4.940;2022-10-10T01:57:24;11.60;99.90
40255;DHT22;25973;52.368;4.940;2022-10-10T02:06:06;11.70;99.90
40255;DHT22;25973;52.368;4.940;2022-10-10T02:08:36;11.70;99.90
40255;DHT22;25973;52.368;4.940;2022-10-10T02:11:07;11.70;99.90
40255;DHT22;25973;52.368;4.940;2022-10-10T02:13:46;11.70;99.90
40255;DHT22;25973;52.368;4.940;2022-10-10T02:16:15;11.70;99.90
40255;DHT22;25973;52.368;4.940;2022-10-10T02:18:43;11.70;99.90
40255;DHT22;25973;52.368;4.940;2022-10-10T02:21:10;11.70;99.90
40255;DHT22;25973;52.368;4.940;2022-10-10T02:23:40;11.70;99.90
40255;DHT22;25973;52.368;4.940;2022-10-10T02:26:07;11.70;99.90
40255;DHT22;25973;52.368;4.940;2022-10-10T02:28:42;11.70;99.90
40255;DHT22;25973;52.368;4.940;2022-10-10T02:31:14;11.70;99.90
40255;DHT22;25973;52.368;4.940;2022-10-10T02:33:48;11.70;99.90
40255;DHT22;25973;52.368;4.940;2022-10-10T02:36:16;11.70;99.90
40255;DHT22;25973;52.368;4.940;2022-10-10T02:38:44;11.70;99.90
40255;DHT22;25973;52.368;4.940;2022-10-10T02:41:12;11.70;99.90
40255;DHT22;25973;52.368;4.940;2022-10-10T02:43:38;11.80;99.90
40255;DHT22;25973;52.368;4.940;2022-10-10T02:46:08;11.70;99.90
40255;DHT22;25973;52.368;4.940;2022-10-10T02:48:35;11.80;99.90
40255;DHT22;25973;52.368;4.940;2022-10-10T02:51:00;11.70;99.90
40255;DHT22;25973;52.368;4.940;2022-10-10T02:53:26;11.70;99.90
40255;DHT22;25973;52.368;4.940;2022-10-10T02:55:52;11.70;99.90
40255;DHT22;25973;52.368;4.940;2022-10-10T02:58:17;11.70;99.90
40255;DHT22;25973;52.368;4.940;2022-10-10T03:00:43;11.70;99.90
40255;DHT22;25973;52.368;4.940;2022-10-10T03:03:09;11.70;99.90
40255;DHT22;25973;52.368;4.940;2022-10-10T03:05:34;11.60;99.90
40255;DHT22;25973;52.368;4.940;2022-10-10T03:08:00;11.60;99.90
40255;DHT22;25973;52.368;4.940;2022-10-10T03:10:38;11.60;99.90
40255;DHT22;25973;52.368;4.940;2022-10-10T03:13:04;11.60;99.90
40255;DHT22;25973;52.368;4.940;2022-10-10T03:15:29;11.60;99.90
40255;DHT22;25973;52.368;4.940;2022-10-10T03:17:55;11.60;99.90
40255;DHT22;25973;52.368;4.940;2022-10-10T03:20:20;11.50;99.90
40255;DHT22;25973;52.368;4.940;2022-10-10T03:22:46;11.50;99.90
40255;DHT22;25973;52.368;4.940;2022-10-10T03:25:11;11.50;99.90
40255;DHT22;25973;52.368;4.940;2022-10-10T03:27:37;11.40;99.90
40255;DHT22;25973;52.368;4.940;2022-10-10T03:30:04;11.40;99.90
40255;DHT22;25973;52.368;4.940;2022-10-10T03:32:29;11.40;99.90
40255;DHT22;25973;52.368;4.940;2022-10-10T03:34:55;11.40;99.90
40255;DHT22;25973;52.368;4.940;2022-10-10T03:37:20;11.30;99.90
40255;DHT22;25973;52.368;4.940;2022-10-10T03:39:46;11.30;99.90
40255;DHT22;25973;52.368;4.940;2022-10-10T03:42:11;11.20;99.90
40255;DHT22;25973;52.368;4.940;2022-10-10T03:44:37;11.20;99.90
40255;DHT22;25973;52.368;4.940;2022-10-10T03:47:03;11.20;99.90
40255;DHT22;25973;52.368;4.940;2022-10-10T03:49:28;11.20;99.90
40255;DHT22;25973;52.368;4.940;2022-10-10T03:51:54;11.20;99.90
40255;DHT22;25973;52.368;4.940;2022-10-10T03:54:19;11.20;99.90
40255;DHT22;25973;52.368;4.940;2022-10-10T03:56:45;11.20;99.90
40255;DHT22;25973;52.368;4.940;2022-10-10T03:59:11;11.10;99.90
40255;DHT22;25973;52.368;4.940;2022-10-10T04:01:36;11.10;99.90
40255;DHT22;25973;52.368;4.940;2022-10-10T04:04:02;11.10;99.90
40255;DHT22;25973;52.368;4.940;2022-10-10T04:06:29;11.10;99.90
40255;DHT22;25973;52.368;4.940;2022-10-10T04:08:55;11.10;99.90
40255;DHT22;25973;52.368;4.940;2022-10-10T04:11:20;11.00;99.90
40255;DHT22;25973;52.368;4.940;2022-10-10T04:13:46;11.00;99.90
40255;DHT22;25973;52.368;4.940;2022-10-10T04:16:11;11.00;99.90
40255;DHT22;25973;52.368;4.940;2022-10-10T04:18:37;11.00;99.90
40255;DHT22;25973;52.368;4.940;2022-10-10T04:21:04;11.00;99.90
40255;DHT22;25973;52.368;4.940;2022-10-10T04:23:30;10.90;99.90
40255;DHT22;25973;52.368;4.940;2022-10-10T04:25:56;10.90;99.90
40255;DHT22;25973;52.368;4.940;2022-10-10T04:28:21;10.90;99.90
40255;DHT22;25973;52.368;4.940;2022-10-10T04:30:47;10.90;99.90
40255;DHT22;25973;52.368;4.940;2022-10-10T04:33:13;10.90;99.90
40255;DHT22;25973;52.368;4.940;2022-10-10T04:35:38;10.90;99.90
40255;DHT22;25973;52.368;4.940;2022-10-10T04:38:06;10.90;99.90
40255;DHT22;25973;52.368;4.940;2022-10-10T04:40:32;10.90;99.90
40255;DHT22;25973;52.368;4.940;2022-10-10T04:42:58;10.90;99.90
40255;DHT22;25973;52.368;4.940;2022-10-10T04:45:26;10.90;99.90
40255;DHT22;25973;52.368;4.940;2022-10-10T04:47:52;10.80;99.90
40255;DHT22;25973;52.368;4.940;2022-10-10T04:50:18;10.90;99.90
40255;DHT22;25973;52.368;4.940;2022-10-10T04:52:44;10.80;99.90
40255;DHT22;25973;52.368;4.940;2022-10-10T04:55:12;10.80;99.90
40255;DHT22;25973;52.368;4.940;2022-10-10T04:57:37;10.80;99.90
40255;DHT22;25973;52.368;4.940;2022-10-10T05:00:04;10.80;99.90
40255;DHT22;25973;52.368;4.940;2022-10-10T05:02:31;10.80;99.90
40255;DHT22;25973;52.368;4.940;2022-10-10T05:04:56;10.70;99.90
40255;DHT22;25973;52.368;4.940;2022-10-10T05:07:22;10.70;99.90
40255;DHT22;25973;52.368;4.940;2022-10-10T05:09:51;10.70;99.90
40255;DHT22;25973;52.368;4.940;2022-10-10T05:12:16;10.70;99.90
40255;DHT22;25973;52.368;4.940;2022-10-10T05:14:42;10.70;99.90
40255;DHT22;25973;52.368;4.940;2022-10-10T05:17:07;10.70;99.90
40255;DHT22;25973;52.368;4.940;2022-10-10T05:19:33;10.70;99.90
40255;DHT22;25973;52.368;4.940;2022-10-10T05:21:58;10.70;99.90
40255;DHT22;25973;52.368;4.940;2022-10-10T05:24:24;10.70;99.90
40255;DHT22;25973;52.368;4.940;2022-10-10T05:26:50;10.70;99.90
40255;DHT22;25973;52.368;4.940;2022-10-10T05:29:15;10.70;99.90
40255;DHT22;25973;52.368;4.940;2022-10-10T05:31:41;10.70;99.90
40255;DHT22;25973;52.368;4.940;2022-10-10T05:34:13;10.70;99.90
40255;DHT22;25973;52.368;4.940;2022-10-10T05:36:39;10.70;99.90
40255;DHT22;25973;52.368;4.940;2022-10-10T05:39:05;10.60;99.90
40255;DHT22;25973;52.368;4.940;2022-10-10T05:41:31;10.60;99.90
40255;DHT22;25973;52.368;4.940;2022-10-10T05:43:56;10.60;99.90
40255;DHT22;25973;52.368;4.940;2022-10-10T05:46:22;10.60;99.90
40255;DHT22;25973;52.368;4.940;2022-10-10T05:48:49;10.60;99.90
40255;DHT22;25973;52.368;4.940;2022-10-10T05:51:15;10.50;99.90
40255;DHT22;25973;52.368;4.940;2022-10-10T05:53:42;10.50;99.90
40255;DHT22;25973;52.368;4.940;2022-10-10T05:56:10;10.50;99.90
40255;DHT22;25973;52.368;4.940;2022-10-10T05:58:37;10.50;99.90
40255;DHT22;25973;52.368;4.940;2022-10-10T06:01:04;10.50;99.90
40255;DHT22;25973;52.368;4.940;2022-10-10T06:03:30;10.50;99.90
40255;DHT22;25973;52.368;4.940;2022-10-10T06:05:56;10.50;99.90
40255;DHT22;25973;52.368;4.940;2022-10-10T06:08:22;10.50;99.90
40255;DHT22;25973;52.368;4.940;2022-10-10T06:10:47;10.50;99.90
40255;DHT22;25973;52.368;4.940;2022-10-10T06:13:15;10.40;99.90
40255;DHT22;25973;52.368;4.940;2022-10-10T06:15:41;10.40;99.90
40255;DHT22;25973;52.368;4.940;2022-10-10T06:18:07;10.40;99.90
40255;DHT22;25973;52.368;4.940;2022-10-10T06:20:38;10.40;99.90
40255;DHT22;25973;52.368;4.940;2022-10-10T06:23:05;10.40;99.90
40255;DHT22;25973;52.368;4.940;2022-10-10T06:25:32;10.50;99.90
40255;DHT22;25973;52.368;4.940;2022-10-10T06:27:59;10.50;99.90
40255;DHT22;25973;52.368;4.940;2022-10-10T06:30:25;10.50;99.90
40255;DHT22;25973;52.368;4.940;2022-10-10T06:32:51;10.50;99.90
40255;DHT22;25973;52.368;4.940;2022-10-10T06:35:17;10.50;99.90
40255;DHT22;25973;52.368;4.940;2022-10-10T06:37:43;10.60;99.90
40255;DHT22;25973;52.368;4.940;2022-10-10T06:40:09;10.60;99.90
40255;DHT22;25973;52.368;4.940;2022-10-10T06:42:34;10.60;99.90
40255;DHT22;25973;52.368;4.940;2022-10-10T06:45:00;10.70;99.90
40255;DHT22;25973;52.368;4.940;2022-10-10T06:47:26;10.70;99.90
40255;DHT22;25973;52.368;4.940;2022-10-10T06:49:52;10.80;99.90
40255;DHT22;25973;52.368;4.940;2022-10-10T06:52:17;10.80;99.90
40255;DHT22;25973;52.368;4.940;2022-10-10T06:54:44;10.90;99.90
40255;DHT22;25973;52.368;4.940;2022-10-10T06:57:09;11.00;99.90
40255;DHT22;25973;52.368;4.940;2022-10-10T06:59:35;11.00;99.90
40255;DHT22;25973;52.368;4.940;2022-10-10T07:02:01;11.10;99.90
40255;DHT22;25973;52.368;4.940;2022-10-10T07:04:26;11.20;99.90
40255;DHT22;25973;52.368;4.940;2022-10-10T07:06:52;11.30;99.90
40255;DHT22;25973;52.368;4.940;2022-10-10T07:09:17;11.30;99.90
40255;DHT22;25973;52.368;4.940;2022-10-10T07:11:44;11.50;99.90
40255;DHT22;25973;52.368;4.940;2022-10-10T07:14:10;11.60;99.90
40255;DHT22;25973;52.368;4.940;2022-10-10T07:16:36;11.80;99.90
40255;DHT22;25973;52.368;4.940;2022-10-10T07:19:02;11.90;99.90
40255;DHT22;25973;52.368;4.940;2022-10-10T07:21:27;12.00;99.90
40255;DHT22;25973;52.368;4.940;2022-10-10T07:23:53;12.20;99.90
40255;DHT22;25973;52.368;4.940;2022-10-10T07:26:18;12.30;99.90
40255;DHT22;25973;52.368;4.940;2022-10-10T07:28:47;12.40;99.90
40255;DHT22;25973;52.368;4.940;2022-10-10T07:31:13;12.60;99.90
40255;DHT22;25973;52.368;4.940;2022-10-10T07:33:42;12.70;99.90
40255;DHT22;25973;52.368;4.940;2022-10-10T07:36:08;12.90;99.90
40255;DHT22;25973;52.368;4.940;2022-10-10T07:38:34;13.20;99.90
40255;DHT22;25973;52.368;4.940;2022-10-10T07:41:07;13.30;99.90
40255;DHT22;25973;52.368;4.940;2022-10-10T07:43:33;13.40;99.90
40255;DHT22;25973;52.368;4.940;2022-10-10T07:45:59;13.60;99.90
40255;DHT22;25973;52.368;4.940;2022-10-10T07:48:25;13.70;99.90
40255;DHT22;25973;52.368;4.940;2022-10-10T07:50:50;13.90;99.90
40255;DHT22;25973;52.368;4.940;2022-10-10T07:53:16;14.10;99.90
40255;DHT22;25973;52.368;4.940;2022-10-10T07:55:42;14.20;99.90
40255;DHT22;25973;52.368;4.940;2022-10-10T07:58:10;14.40;99.90
40255;DHT22;25973;52.368;4.940;2022-10-10T08:00:35;14.40;99.90
40255;DHT22;25973;52.368;4.940;2022-10-10T08:03:03;14.50;99.90
40255;DHT22;25973;52.368;4.940;2022-10-10T08:05:28;14.50;99.90
40255;DHT22;25973;52.368;4.940;2022-10-10T08:07:54;14.50;99.90
40255;DHT22;25973;52.368;4.940;2022-10-10T08:10:19;14.50;99.90
40255;DHT22;25973;52.368;4.940;2022-10-10T08:12:45;14.40;99.90
40255;DHT22;25973;52.368;4.940;2022-10-10T08:15:11;14.30;99.90
40255;DHT22;25973;52.368;4.940;2022-10-10T08:17:37;14.30;99.90
40255;DHT22;25973;52.368;4.940;2022-10-10T08:20:03;14.20;99.90
40255;DHT22;25973;52.368;4.940;2022-10-10T08:22:29;14.10;99.90
40255;DHT22;25973;52.368;4.940;2022-10-10T08:24:55;14.00;99.90
40255;DHT22;25973;52.368;4.940;2022-10-10T08:27:20;14.00;99.90
40255;DHT22;25973;52.368;4.940;2022-10-10T08:29:46;13.90;99.90
40255;DHT22;25973;52.368;4.940;2022-10-10T08:32:11;13.90;99.90
40255;DHT22;25973;52.368;4.940;2022-10-10T08:34:37;13.90;99.90
40255;DHT22;25973;52.368;4.940;2022-10-10T08:37:03;13.90;99.90
40255;DHT22;25973;52.368;4.940;2022-10-10T08:39:28;13.80;99.90
40255;DHT22;25973;52.368;4.940;2022-10-10T08:41:56;13.80;99.90
40255;DHT22;25973;52.368;4.940;2022-10-10T08:44:27;13.80;99.90
40255;DHT22;25973;52.368;4.940;2022-10-10T08:49:48;13.80;99.90
40255;DHT22;25973;52.368;4.940;2022-10-10T08:54:57;13.80;99.90
40255;DHT22;25973;52.368;4.940;2022-10-10T08:57:29;13.90;99.90
40255;DHT22;25973;52.368;4.940;2022-10-10T08:59:58;14.00;99.90
40255;DHT22;25973;52.368;4.940;2022-10-10T09:02:37;14.10;99.90
40255;DHT22;25973;52.368;4.940;2022-10-10T09:05:04;14.10;99.90
40255;DHT22;25973;52.368;4.940;2022-10-10T09:13:34;14.20;99.90
40255;DHT22;25973;52.368;4.940;2022-10-10T09:16:06;14.30;99.90
40255;DHT22;25973;52.368;4.940;2022-10-10T09:18:52;14.30;99.90
40255;DHT22;25973;52.368;4.940;2022-10-10T09:21:33;14.30;99.90
40255;DHT22;25973;52.368;4.940;2022-10-10T09:24:09;14.30;99.90
40255;DHT22;25973;52.368;4.940;2022-10-10T09:26:41;14.30;99.90
40255;DHT22;25973;52.368;4.940;2022-10-10T09:29:21;14.30;99.90
40255;DHT22;25973;52.368;4.940;2022-10-10T09:31:54;14.40;99.90
40255;DHT22;25973;52.368;4.940;2022-10-10T09:34:33;14.40;99.90
40255;DHT22;25973;52.368;4.940;2022-10-10T09:37:02;14.50;99.90
40255;DHT22;25973;52.368;4.940;2022-10-10T09:41:59;14.50;99.90
40255;DHT22;25973;52.368;4.940;2022-10-10T09:44:26;14.50;99.90
40255;DHT22;25973;52.368;4.940;2022-10-10T09:46:52;14.50;99.90
40255;DHT22;25973;52.368;4.940;2022-10-10T09:49:19;14.50;99.90
40255;DHT22;25973;52.368;4.940;2022-10-10T09:51:46;14.50;99.90
40255;DHT22;25973;52.368;4.940;2022-10-10T09:54:14;14.60;99.90
40255;DHT22;25973;52.368;4.940;2022-10-10T09:56:52;14.80;99.90
40255;DHT22;25973;52.368;4.940;2022-10-10T10:02:27;15.30;99.90
40255;DHT22;25973;52.368;4.940;2022-10-10T10:04:55;15.40;99.90
40255;DHT22;25973;52.368;4.940;2022-10-10T10:07:31;15.90;99.90
40255;DHT22;25973;52.368;4.940;2022-10-10T10:12:56;18.70;99.90
40255;DHT22;25973;52.368;4.940;2022-10-10T10:15:25;19.20;99.90
40255;DHT22;25973;52.368;4.940;2022-10-10T10:20:53;18.60;99.90
40255;DHT22;25973;52.368;4.940;2022-10-10T10:23:58;18.30;99.90
40255;DHT22;25973;52.368;4.940;2022-10-10T10:28:52;17.60;99.90
40255;DHT22;25973;52.368;4.940;2022-10-10T10:31:50;17.40;99.90
40255;DHT22;25973;52.368;4.940;2022-10-10T10:34:27;17.10;99.90
40255;DHT22;25973;52.368;4.940;2022-10-10T10:40:51;16.70;99.90
40255;DHT22;25973;52.368;4.940;2022-10-10T10:45:55;16.40;99.90
40255;DHT22;25973;52.368;4.940;2022-10-10T10:51:30;16.20;99.90
40255;DHT22;25973;52.368;4.940;2022-10-10T10:57:08;16.00;99.90
40255;DHT22;25973;52.368;4.940;2022-10-10T11:07:16;15.80;99.90
40255;DHT22;25973;52.368;4.940;2022-10-10T11:09:57;15.80;99.90
40255;DHT22;25973;52.368;4.940;2022-10-10T11:15:20;15.80;99.90
40255;DHT22;25973;52.368;4.940;2022-10-10T11:18:15;15.70;99.90
40255;DHT22;25973;52.368;4.940;2022-10-10T11:20:49;15.70;99.90
40255;DHT22;25973;52.368;4.940;2022-10-10T11:23:45;15.70;99.90
40255;DHT22;25973;52.368;4.940;2022-10-10T11:28:52;15.60;99.90
40255;DHT22;25973;52.368;4.940;2022-10-10T11:31:27;15.60;99.90
40255;DHT22;25973;52.368;4.940;2022-10-10T11:34:25;15.60;99.90
40255;DHT22;25973;52.368;4.940;2022-10-10T11:36:55;15.60;99.90
40255;DHT22;25973;52.368;4.940;2022-10-10T11:39:25;15.70;99.90
40255;DHT22;25973;52.368;4.940;2022-10-10T11:42:02;15.80;99.90
40255;DHT22;25973;52.368;4.940;2022-10-10T11:44:35;15.70;99.90
40255;DHT22;25973;52.368;4.940;2022-10-10T11:47:30;15.80;99.90
40255;DHT22;25973;52.368;4.940;2022-10-10T11:52:57;15.80;99.90
40255;DHT22;25973;52.368;4.940;2022-10-10T11:58:13;15.80;99.90
40255;DHT22;25973;52.368;4.940;2022-10-10T12:00:47;15.80;99.90
40255;DHT22;25973;52.368;4.940;2022-10-10T12:03:13;15.80;99.90
40255;DHT22;25973;52.368;4.940;2022-10-10T12:05:47;15.80;99.90
40255;DHT22;25973;52.368;4.940;2022-10-10T12:08:23;15.90;99.90
40255;DHT22;25973;52.368;4.940;2022-10-10T12:11:04;15.90;99.90
40255;DHT22;25973;52.368;4.940;2022-10-10T12:13:32;15.90;99.90
40255;DHT22;25973;52.368;4.940;2022-10-10T12:16:12;15.80;99.90
40255;DHT22;25973;52.368;4.940;2022-10-10T12:19:06;15.80;99.90
40255;DHT22;25973;52.368;4.940;2022-10-10T12:21:31;15.80;99.90
40255;DHT22;25973;52.368;4.940;2022-10-10T12:24:03;15.80;99.90
40255;DHT22;25973;52.368;4.940;2022-10-10T12:29:38;15.90;99.90
40255;DHT22;25973;52.368;4.940;2022-10-10T12:37:32;15.80;99.90
40255;DHT22;25973;52.368;4.940;2022-10-10T12:48:01;15.60;99.90
40255;DHT22;25973;52.368;4.940;2022-10-10T12:50:29;15.30;99.90
40255;DHT22;25973;52.368;4.940;2022-10-10T12:53:01;15.20;99.90
40255;DHT22;25973;52.368;4.940;2022-10-10T12:55:37;15.00;99.90
40255;DHT22;25973;52.368;4.940;2022-10-10T12:58:08;14.90;99.90
40255;DHT22;25973;52.368;4.940;2022-10-10T13:00:42;14.70;99.90
40255;DHT22;25973;52.368;4.940;2022-10-10T13:05:52;14.70;99.90
40255;DHT22;25973;52.368;4.940;2022-10-10T13:08:22;14.60;99.90
40255;DHT22;25973;52.368;4.940;2022-10-10T13:13:26;14.60;99.90
40255;DHT22;25973;52.368;4.940;2022-10-10T13:15:54;14.60;99.90
40255;DHT22;25973;52.368;4.940;2022-10-10T13:18:52;14.60;99.90
40255;DHT22;25973;52.368;4.940;2022-10-10T13:21:30;14.50;99.90
40255;DHT22;25973;52.368;4.940;2022-10-10T13:24:04;14.50;99.90
40255;DHT22;25973;52.368;4.940;2022-10-10T13:26:33;14.40;99.90
40255;DHT22;25973;52.368;4.940;2022-10-10T13:29:04;14.40;99.90
40255;DHT22;25973;52.368;4.940;2022-10-10T13:31:37;14.40;99.90
40255;DHT22;25973;52.368;4.940;2022-10-10T13:34:06;14.40;99.90
40255;DHT22;25973;52.368;4.940;2022-10-10T13:36:34;14.40;99.90
40255;DHT22;25973;52.368;4.940;2022-10-10T13:39:01;14.40;99.90
40255;DHT22;25973;52.368;4.940;2022-10-10T13:41:27;14.40;99.90
40255;DHT22;25973;52.368;4.940;2022-10-10T13:43:53;14.40;99.90
40255;DHT22;25973;52.368;4.940;2022-10-10T13:46:30;14.40;99.90
40255;DHT22;25973;52.368;4.940;2022-10-10T13:48:57;14.30;99.90
40255;DHT22;25973;52.368;4.940;2022-10-10T13:51:43;14.30;99.90
40255;DHT22;25973;52.368;4.940;2022-10-10T13:54:45;14.40;99.90
40255;DHT22;25973;52.368;4.940;2022-10-10T13:57:22;14.50;99.90
40255;DHT22;25973;52.368;4.940;2022-10-10T14:00:03;14.60;99.90
40255;DHT22;25973;52.368;4.940;2022-10-10T14:02:31;14.60;99.90
40255;DHT22;25973;52.368;4.940;2022-10-10T14:04:57;14.70;99.90
40255;DHT22;25973;52.368;4.940;2022-10-10T14:07:28;14.80;99.90
40255;DHT22;25973;52.368;4.940;2022-10-10T14:10:08;14.80;99.90
40255;DHT22;25973;52.368;4.940;2022-10-10T14:12:36;14.90;99.90
40255;DHT22;25973;52.368;4.940;2022-10-10T14:15:28;14.90;99.90
40255;DHT22;25973;52.368;4.940;2022-10-10T14:17:50;15.00;99.90
40255;DHT22;25973;52.368;4.940;2022-10-10T14:20:15;14.90;99.90
40255;DHT22;25973;52.368;4.940;2022-10-10T14:22:41;14.90;99.90
40255;DHT22;25973;52.368;4.940;2022-10-10T14:25:06;14.90;99.90
40255;DHT22;25973;52.368;4.940;2022-10-10T14:27:32;14.80;99.90
40255;DHT22;25973;52.368;4.940;2022-10-10T14:29:58;14.80;99.90
40255;DHT22;25973;52.368;4.940;2022-10-10T14:32:24;14.80;99.90
40255;DHT22;25973;52.368;4.940;2022-10-10T14:34:49;14.70;99.90
40255;DHT22;25973;52.368;4.940;2022-10-10T14:37:22;14.70;99.90
40255;DHT22;25973;52.368;4.940;2022-10-10T14:39:48;14.60;99.90
40255;DHT22;25973;52.368;4.940;2022-10-10T14:42:15;14.70;99.90
40255;DHT22;25973;52.368;4.940;2022-10-10T14:44:41;14.70;99.90
40255;DHT22;25973;52.368;4.940;2022-10-10T14:47:15;14.60;99.90
40255;DHT22;25973;52.368;4.940;2022-10-10T14:49:41;14.60;99.90
40255;DHT22;25973;52.368;4.940;2022-10-10T14:52:07;14.70;99.90
40255;DHT22;25973;52.368;4.940;2022-10-10T14:54:33;14.70;99.90
40255;DHT22;25973;52.368;4.940;2022-10-10T14:56:58;14.60;99.90
40255;DHT22;25973;52.368;4.940;2022-10-10T14:59:24;14.70;99.90
40255;DHT22;25973;52.368;4.940;2022-10-10T15:01:50;14.70;99.90
40255;DHT22;25973;52.368;4.940;2022-10-10T15:04:15;14.70;99.90
40255;DHT22;25973;52.368;4.940;2022-10-10T15:06:41;14.70;99.90
40255;DHT22;25973;52.368;4.940;2022-10-10T15:09:07;14.70;99.90
40255;DHT22;25973;52.368;4.940;2022-10-10T15:11:34;14.70;99.90
40255;DHT22;25973;52.368;4.940;2022-10-10T15:14:00;14.60;99.90
40255;DHT22;25973;52.368;4.940;2022-10-10T15:16:25;14.60;99.90
40255;DHT22;25973;52.368;4.940;2022-10-10T15:18:51;14.60;99.90
40255;DHT22;25973;52.368;4.940;2022-10-10T15:21:16;14.60;99.90
40255;DHT22;25973;52.368;4.940;2022-10-10T15:23:42;14.60;99.90
40255;DHT22;25973;52.368;4.940;2022-10-10T15:26:07;14.60;99.90
40255;DHT22;25973;52.368;4.940;2022-10-10T15:28:33;14.50;99.90
40255;DHT22;25973;52.368;4.940;2022-10-10T15:30:59;14.50;99.90
40255;DHT22;25973;52.368;4.940;2022-10-10T15:33:25;14.50;99.90
40255;DHT22;25973;52.368;4.940;2022-10-10T15:36:02;14.50;99.90
40255;DHT22;25973;52.368;4.940;2022-10-10T15:38:29;14.50;99.90
40255;DHT22;25973;52.368;4.940;2022-10-10T15:40:59;14.50;99.90
40255;DHT22;25973;52.368;4.940;2022-10-10T15:43:26;14.40;99.90
40255;DHT22;25973;52.368;4.940;2022-10-10T15:45:52;14.40;99.90
40255;DHT22;25973;52.368;4.940;2022-10-10T15:48:19;14.40;99.90
40255;DHT22;25973;52.368;4.940;2022-10-10T15:50:44;14.40;99.90
40255;DHT22;25973;52.368;4.940;2022-10-10T15:53:10;14.40;99.90
40255;DHT22;25973;52.368;4.940;2022-10-10T15:55:46;14.40;99.90
40255;DHT22;25973;52.368;4.940;2022-10-10T15:58:15;14.40;99.90
40255;DHT22;25973;52.368;4.940;2022-10-10T16:00:42;14.40;99.90
40255;DHT22;25973;52.368;4.940;2022-10-10T16:03:10;14.30;99.90
40255;DHT22;25973;52.368;4.940;2022-10-10T16:05:40;14.30;99.90
40255;DHT22;25973;52.368;4.940;2022-10-10T16:08:06;14.30;99.90
40255;DHT22;25973;52.368;4.940;2022-10-10T16:10:37;14.30;99.90
40255;DHT22;25973;52.368;4.940;2022-10-10T16:13:03;14.20;99.90
40255;DHT22;25973;52.368;4.940;2022-10-10T16:15:29;14.20;99.90
40255;DHT22;25973;52.368;4.940;2022-10-10T16:17:54;14.10;99.90
40255;DHT22;25973;52.368;4.940;2022-10-10T16:20:20;14.10;99.90
40255;DHT22;25973;52.368;4.940;2022-10-10T16:22:45;14.10;99.90
40255;DHT22;25973;52.368;4.940;2022-10-10T16:25:11;14.10;99.90
40255;DHT22;25973;52.368;4.940;2022-10-10T16:27:37;14.10;99.90
40255;DHT22;25973;52.368;4.940;2022-10-10T16:30:03;14.10;99.90
40255;DHT22;25973;52.368;4.940;2022-10-10T16:32:29;14.10;99.90
40255;DHT22;25973;52.368;4.940;2022-10-10T16:34:55;14.10;99.90
40255;DHT22;25973;52.368;4.940;2022-10-10T16:37:20;14.10;99.90
40255;DHT22;25973;52.368;4.940;2022-10-10T16:39:46;14.10;99.90
40255;DHT22;25973;52.368;4.940;2022-10-10T16:42:11;14.00;99.90
40255;DHT22;25973;52.368;4.940;2022-10-10T16:44:37;14.00;99.90
40255;DHT22;25973;52.368;4.940;2022-10-10T16:47:03;14.00;99.90
40255;DHT22;25973;52.368;4.940;2022-10-10T16:49:28;14.00;99.90
40255;DHT22;25973;52.368;4.940;2022-10-10T16:51:54;14.00;99.90
40255;DHT22;25973;52.368;4.940;2022-10-10T16:54:19;13.90;99.90
40255;DHT22;25973;52.368;4.940;2022-10-10T16:56:45;13.90;99.90
40255;DHT22;25973;52.368;4.940;2022-10-10T16:59:10;13.90;99.90
40255;DHT22;25973;52.368;4.940;2022-10-10T17:01:39;13.80;99.90
40255;DHT22;25973;52.368;4.940;2022-10-10T17:04:04;13.80;99.90
40255;DHT22;25973;52.368;4.940;2022-10-10T17:06:30;13.70;99.90
40255;DHT22;25973;52.368;4.940;2022-10-10T17:09:03;13.80;99.90
40255;DHT22;25973;52.368;4.940;2022-10-10T17:11:30;13.70;99.90
40255;DHT22;25973;52.368;4.940;2022-10-10T17:13:55;13.70;99.90
40255;DHT22;25973;52.368;4.940;2022-10-10T17:16:24;13.70;99.90
40255;DHT22;25973;52.368;4.940;2022-10-10T17:18:50;13.70;99.90
40255;DHT22;25973;52.368;4.940;2022-10-10T17:21:18;13.70;99.90